Time;durP1;ratioP1;P1;durP2;ratioP2;P2;SDS_P1;SDS_P2;PMS_P1;PMS_P2;Temp;Humidity;BMP_temperature;BMP_pressure;BME280_temperature;BME280_humidity;BME280_pressure;Samples;Min_cycle;Max_cycle;Signal;HPM_P1;HPM_P2
2023/11/24 00:00:01;;;;;;;5.90;1.40;;;;;;;6.11;100.00;98172.98;105502;1260;99631;-75
2023/11/24 00:03:08;;;;;;;3.90;1.60;;;;;;;6.11;100.00;98163.37;105442;1257;95909;-76
2023/11/24 00:05:56;;;;;;;5.20;1.80;;;;;;;6.10;100.00;98183.49;105403;1263;96037;-77
2023/11/24 00:08:41;;;;;;;5.20;1.40;;;;;;;6.09;100.00;98203.85;105553;1260;99904;-76
2023/11/24 00:11:27;;;;;;;5.10;1.40;;;;;;;6.08;100.00;98214.34;105493;1260;100462;-76
2023/11/24 00:14:15;;;;;;;11.80;1.80;;;;;;;6.07;100.00;98216.34;105497;1270;97749;-76
2023/11/24 00:17:00;;;;;;;5.30;1.50;;;;;;;6.08;100.00;98214.17;105516;1260;97359;-77
2023/11/24 00:19:46;;;;;;;5.80;1.70;;;;;;;6.07;100.00;98213.52;105474;1260;97525;-75
2023/11/24 00:22:32;;;;;;;3.60;1.50;;;;;;;6.06;100.00;98209.94;105509;1260;99967;-75
2023/11/24 00:25:18;;;;;;;7.10;1.60;;;;;;;6.06;100.00;98209.45;105515;1260;100300;-76
2023/11/24 00:28:04;;;;;;;4.50;2.00;;;;;;;6.06;100.00;98206.25;105226;1260;97730;-79
2023/11/24 00:30:49;;;;;;;8.00;1.80;;;;;;;6.06;100.00;98205.20;105721;1257;96638;-76
2023/11/24 00:33:35;;;;;;;4.20;1.60;;;;;;;6.04;100.00;98200.98;105320;1260;97134;-76
2023/11/24 00:36:22;;;;;;;7.00;1.50;;;;;;;6.03;100.00;98203.02;105566;1260;101054;-77
2023/11/24 00:39:07;;;;;;;9.10;1.80;;;;;;;6.03;100.00;98197.85;105441;1257;100335;-77
2023/11/24 00:41:53;;;;;;;4.80;1.70;;;;;;;6.01;100.00;98193.90;105512;1259;97868;-75
2023/11/24 00:44:38;;;;;;;9.50;1.70;;;;;;;5.99;100.00;98195.60;105506;1259;96550;-76
2023/11/24 00:47:25;;;;;;;4.10;1.30;;;;;;;5.97;100.00;98196.27;105519;1261;96824;-76
2023/11/24 00:50:11;;;;;;;12.40;2.00;;;;;;;5.94;100.00;98198.53;105482;1256;100124;-77
2023/11/24 00:52:57;;;;;;;5.30;1.50;;;;;;;5.92;100.00;98199.95;105541;1259;99097;-77
2023/11/24 00:55:43;;;;;;;7.20;1.70;;;;;;;5.90;100.00;98204.66;105553;1260;98631;-77
2023/11/24 00:58:29;;;;;;;5.80;1.90;;;;;;;5.88;100.00;98204.31;105532;1260;96620;-76
2023/11/24 01:01:14;;;;;;;6.90;1.80;;;;;;;5.85;100.00;98199.14;105437;1258;97209;-77
2023/11/24 01:04:01;;;;;;;7.90;1.80;;;;;;;5.83;100.00;98206.94;105569;1257;100033;-77
2023/11/24 01:06:46;;;;;;;7.10;2.40;;;;;;;5.80;100.00;98206.36;105581;1260;100133;-76
2023/11/24 01:09:32;;;;;;;9.30;2.00;;;;;;;5.79;100.00;98212.80;105550;1257;97840;-76
2023/11/24 01:12:17;;;;;;;7.70;2.00;;;;;;;5.78;100.00;98214.27;105515;1260;96619;-76
2023/11/24 01:15:04;;;;;;;8.00;1.90;;;;;;;5.79;100.00;98212.23;105576;1259;96523;-76
2023/11/24 01:17:50;;;;;;;9.90;1.70;;;;;;;5.80;100.00;98211.36;105438;1259;101298;-76
2023/11/24 01:20:36;;;;;;;8.00;1.90;;;;;;;5.82;100.00;98214.25;105446;1257;100198;-75
2023/11/24 01:23:22;;;;;;;3.60;1.30;;;;;;;5.83;100.00;98215.68;105509;1257;98184;-77
2023/11/24 01:26:07;;;;;;;7.50;1.70;;;;;;;5.85;100.00;98219.12;105229;1257;96603;-76
2023/11/24 01:28:53;;;;;;;6.00;1.60;;;;;;;5.84;100.00;98215.96;105601;1257;97206;-76
2023/11/24 01:31:39;;;;;;;7.80;1.60;;;;;;;5.85;100.00;98216.59;105240;1258;100054;-76
2023/11/24 01:34:25;;;;;;;11.70;2.10;;;;;;;5.85;100.00;98211.72;105351;1273;100377;-76
2023/11/24 01:37:10;;;;;;;7.40;1.50;;;;;;;5.87;100.00;98208.57;105229;1257;97772;-77
2023/11/24 01:39:56;;;;;;;4.90;1.50;;;;;;;5.87;100.00;98198.67;105320;1257;97878;-76
2023/11/24 01:42:43;;;;;;;6.10;1.70;;;;;;;5.87;100.00;98191.11;105534;1258;96605;-76
2023/11/24 01:45:28;;;;;;;5.60;1.80;;;;;;;5.86;100.00;98194.27;105291;1260;100552;-77
2023/11/24 01:48:15;;;;;;;6.50;1.60;;;;;;;5.84;100.00;98198.80;105299;1261;99497;-76
2023/11/24 01:51:01;;;;;;;6.40;1.80;;;;;;;5.82;100.00;98204.20;105128;1260;98962;-77
2023/11/24 01:53:48;;;;;;;7.40;1.60;;;;;;;5.80;100.00;98204.29;105466;1257;97781;-76
2023/11/24 01:56:34;;;;;;;9.70;2.50;;;;;;;5.78;100.00;98197.64;105999;1262;96494;-76
2023/11/24 01:59:22;;;;;;;4.60;1.90;;;;;;;5.76;100.00;98195.13;105257;1263;99927;-75
2023/11/24 02:02:09;;;;;;;8.90;1.80;;;;;;;5.75;100.00;98203.26;105425;1261;100455;-76
2023/11/24 02:04:55;;;;;;;4.10;1.80;;;;;;;5.75;100.00;98208.05;105498;1259;98290;-77
2023/11/24 02:07:42;;;;;;;6.90;1.60;;;;;;;5.73;100.00;98207.92;105642;1257;96674;-77
2023/11/24 02:10:28;;;;;;;7.50;1.60;;;;;;;5.71;100.00;98212.80;105573;1256;97529;-77
2023/11/24 02:13:14;;;;;;;10.20;2.00;;;;;;;5.67;100.00;98208.95;106717;1257;100078;-76
2023/11/24 02:15:59;;;;;;;7.50;2.30;;;;;;;5.64;100.00;98207.33;105471;1256;99894;-76
2023/11/24 02:18:44;;;;;;;12.00;1.70;;;;;;;5.59;100.00;98204.84;105401;1257;98426;-77
2023/11/24 02:21:30;;;;;;;5.50;1.70;;;;;;;5.54;100.00;98199.71;105463;1260;96642;-76
2023/11/24 02:24:15;;;;;;;6.70;1.60;;;;;;;5.50;100.00;98195.80;105467;1259;97819;-76
2023/11/24 02:27:01;;;;;;;6.30;2.70;;;;;;;5.47;100.00;98196.92;105518;1257;101257;-76
2023/11/24 02:29:48;;;;;;;13.30;2.10;;;;;;;5.43;100.00;98200.62;105583;1257;99197;-76
2023/11/24 02:32:33;;;;;;;3.90;1.20;;;;;;;5.41;100.00;98203.81;107724;1257;97792;-77
2023/11/24 02:35:20;;;;;;;5.90;2.00;;;;;;;5.39;100.00;98195.50;105391;1262;96530;-76
2023/11/24 02:38:07;;;;;;;5.00;1.50;;;;;;;5.37;100.00;98197.71;105526;1259;96623;-76
2023/11/24 02:40:52;;;;;;;5.90;1.90;;;;;;;5.35;100.00;98202.99;105684;1259;100040;-77
2023/11/24 02:43:38;;;;;;;9.10;2.30;;;;;;;5.33;100.00;98205.94;105522;1254;100306;-75
2023/11/24 02:46:23;;;;;;;9.30;1.70;;;;;;;5.30;100.00;98199.66;105518;1258;98996;-76
2023/11/24 02:49:09;;;;;;;5.30;1.90;;;;;;;5.28;100.00;98198.52;105426;1259;96514;-76
2023/11/24 02:51:54;;;;;;;4.60;1.70;;;;;;;5.26;100.00;98193.80;105399;1257;97119;-77
2023/11/24 02:54:40;;;;;;;8.10;2.20;;;;;;;5.26;100.00;98200.34;105559;1258;100073;-76
2023/11/24 02:57:25;;;;;;;7.70;2.00;;;;;;;5.27;100.00;98196.02;105627;1271;100081;-77
2023/11/24 03:00:20;;;;;;;9.90;2.90;;;;;;;5.27;100.00;98191.96;105532;1254;98985;-76
2023/11/24 03:03:07;;;;;;;10.70;2.10;;;;;;;5.29;100.00;98189.34;105442;1254;97279;-77
2023/11/24 03:05:55;;;;;;;5.20;1.70;;;;;;;5.31;100.00;98184.68;105641;1258;97000;-77
2023/11/24 03:08:40;;;;;;;13.60;2.00;;;;;;;5.32;100.00;98189.04;105551;1254;100771;-77
2023/11/24 03:11:26;;;;;;;8.00;1.80;;;;;;;5.34;100.00;98190.05;105528;1259;99082;-77
2023/11/24 03:14:11;;;;;;;8.00;1.70;;;;;;;5.36;100.00;98188.57;105521;1259;98989;-77
2023/11/24 03:16:57;;;;;;;10.40;1.70;;;;;;;5.37;100.00;98188.08;105521;1259;96705;-77
2023/11/24 03:19:42;;;;;;;10.50;2.50;;;;;;;5.36;100.00;98193.47;105501;1262;97189;-77
2023/11/24 03:22:27;;;;;;;9.80;2.10;;;;;;;5.36;100.00;98201.39;105534;1257;100148;-76
2023/11/24 03:25:14;;;;;;;11.50;3.20;;;;;;;5.37;100.00;98191.09;105501;1254;100376;-78
2023/11/24 03:27:59;;;;;;;10.10;1.80;;;;;;;5.37;99.96;98190.65;105844;1256;97700;-76
2023/11/24 03:30:46;;;;;;;7.30;2.10;;;;;;;5.36;99.76;98195.39;105633;1257;96692;-77
2023/11/24 03:33:33;;;;;;;7.20;1.70;;;;;;;5.36;99.45;98193.10;105660;1261;97150;-77
2023/11/24 03:36:20;;;;;;;12.80;1.90;;;;;;;5.37;99.25;98194.93;105596;1259;100091;-78
2023/11/24 03:39:06;;;;;;;9.30;3.10;;;;;;;5.36;99.19;98190.60;105518;1260;99151;-77
2023/11/24 03:41:52;;;;;;;7.60;1.60;;;;;;;5.34;99.11;98192.66;105526;1262;97804;-77
2023/11/24 03:44:38;;;;;;;12.20;3.70;;;;;;;5.33;99.13;98194.45;105503;1257;97125;-76
2023/11/24 03:47:24;;;;;;;10.30;1.80;;;;;;;5.33;99.03;98201.04;107387;1257;96510;-77
2023/11/24 03:50:10;;;;;;;6.80;1.80;;;;;;;5.32;99.11;98202.80;105585;1254;101301;-76
2023/11/24 03:52:56;;;;;;;6.00;1.60;;;;;;;5.31;99.06;98200.98;105317;1260;99223;-76
2023/11/24 03:55:43;;;;;;;8.60;1.50;;;;;;;5.28;98.64;98205.80;105660;1259;98808;-76
2023/11/24 03:58:28;;;;;;;6.40;1.70;;;;;;;5.27;98.73;98207.73;105640;1256;97023;-76
2023/11/24 04:01:14;;;;;;;5.00;1.50;;;;;;;5.26;98.79;98198.20;105553;1256;96593;-76
2023/11/24 04:04:00;;;;;;;8.90;1.60;;;;;;;5.23;98.62;98190.88;105559;1256;100091;-77
2023/11/24 04:06:45;;;;;;;9.00;1.50;;;;;;;5.18;98.31;98193.56;105540;1256;100346;-76
2023/11/24 04:09:31;;;;;;;7.00;1.50;;;;;;;5.12;98.36;98190.81;105530;1259;99041;-76
2023/11/24 04:12:17;;;;;;;10.70;1.80;;;;;;;5.06;98.36;98183.70;105534;1259;97321;-77
2023/11/24 04:15:06;;;;;;;6.90;1.40;;;;;;;5.00;98.48;98179.13;108472;1256;94422;-77
2023/11/24 04:17:55;;;;;;;6.90;1.50;;;;;;;4.93;98.62;98178.42;105745;1259;99965;-77
2023/11/24 04:20:40;;;;;;;4.20;1.00;;;;;;;4.89;98.65;98183.88;105396;1259;99778;-76
2023/11/24 04:23:26;;;;;;;5.30;1.40;;;;;;;4.83;98.80;98183.45;105404;1257;97882;-77
2023/11/24 04:26:11;;;;;;;7.20;1.90;;;;;;;4.77;98.76;98186.97;105732;1253;96625;-76
2023/11/24 04:28:57;;;;;;;4.70;1.50;;;;;;;4.71;99.00;98180.45;105820;1257;97615;-77
2023/11/24 04:31:42;;;;;;;6.60;2.10;;;;;;;4.66;99.08;98171.05;105768;1254;100002;-76
2023/11/24 04:34:28;;;;;;;7.30;1.70;;;;;;;4.60;98.91;98173.23;105742;1253;100334;-76
2023/11/24 04:37:13;;;;;;;9.90;1.90;;;;;;;4.58;98.88;98172.21;105578;1256;97785;-78
2023/11/24 04:39:59;;;;;;;7.60;1.40;;;;;;;4.54;98.81;98167.94;105502;1259;97090;-76
2023/11/24 04:42:45;;;;;;;3.60;1.60;;;;;;;4.50;98.74;98169.02;105499;1259;96562;-77
2023/11/24 04:45:31;;;;;;;6.20;1.50;;;;;;;4.46;98.77;98174.36;105507;1256;100057;-77
2023/11/24 04:48:16;;;;;;;6.20;2.60;;;;;;;4.41;98.82;98169.88;105737;1259;99144;-77
2023/11/24 04:51:02;;;;;;;6.40;1.50;;;;;;;4.35;98.88;98170.17;105561;1259;99010;-78
2023/11/24 04:53:47;;;;;;;5.00;1.40;;;;;;;4.31;99.08;98171.77;105684;1257;96728;-78
2023/11/24 04:56:33;;;;;;;5.40;1.50;;;;;;;4.28;99.32;98180.20;105556;1256;96527;-77
2023/11/24 04:59:18;;;;;;;4.50;1.40;;;;;;;4.22;99.54;98186.24;105569;1259;100173;-77
2023/11/24 05:02:04;;;;;;;9.60;1.80;;;;;;;4.18;99.75;98186.41;105422;1258;99709;-76
2023/11/24 05:04:50;;;;;;;6.50;2.20;;;;;;;4.16;99.92;98184.95;105525;1253;97791;-76
2023/11/24 05:07:35;;;;;;;7.00;1.60;;;;;;;4.15;100.00;98180.71;105562;1257;96793;-77
2023/11/24 05:10:21;;;;;;;4.40;1.70;;;;;;;4.14;100.00;98179.57;105639;1255;96828;-76
2023/11/24 05:13:07;;;;;;;5.90;1.50;;;;;;;4.14;100.00;98178.47;105411;1256;100883;-76
2023/11/24 05:15:52;;;;;;;7.60;1.50;;;;;;;4.16;100.00;98176.47;105541;1253;99086;-77
2023/11/24 05:18:38;;;;;;;5.60;1.70;;;;;;;4.15;100.00;98177.11;105656;1253;97773;-76
2023/11/24 05:21:24;;;;;;;4.30;1.40;;;;;;;4.15;100.00;98181.04;105602;1256;96613;-76
2023/11/24 05:24:09;;;;;;;6.30;1.70;;;;;;;4.15;100.00;98183.40;105597;1257;97128;-76
2023/11/24 05:26:54;;;;;;;10.20;2.50;;;;;;;4.12;100.00;98186.58;105484;1253;100044;-77
2023/11/24 05:29:40;;;;;;;4.50;1.50;;;;;;;4.09;100.00;98189.10;105457;1257;100914;-76
2023/11/24 05:32:26;;;;;;;9.90;2.30;;;;;;;4.06;100.00;98190.57;105372;1254;97704;-76
2023/11/24 05:35:12;;;;;;;10.20;2.20;;;;;;;4.02;100.00;98187.91;105763;1254;97547;-77
2023/11/24 05:38:01;;;;;;;6.70;2.20;;;;;;;3.99;100.00;98189.34;105845;1254;97917;-76
2023/11/24 05:40:46;;;;;;;8.40;1.90;;;;;;;3.98;100.00;98200.88;105838;1256;100006;-77
2023/11/24 05:43:32;;;;;;;8.40;2.60;;;;;;;3.96;100.00;98201.12;105756;1267;100347;-76
2023/11/24 05:46:18;;;;;;;6.20;1.70;;;;;;;3.94;100.00;98202.92;105863;1253;97711;-77
2023/11/24 05:49:04;;;;;;;8.60;1.80;;;;;;;3.93;100.00;98209.10;105903;1257;96737;-76
2023/11/24 05:51:51;;;;;;;9.10;2.10;;;;;;;3.93;100.00;98212.08;105830;1256;97102;-75
2023/11/24 05:54:37;;;;;;;11.10;3.00;;;;;;;3.93;100.00;98213.34;105850;1253;99958;-76
2023/11/24 05:57:23;;;;;;;7.50;2.40;;;;;;;3.92;100.00;98210.94;105787;1272;99074;-77
2023/11/24 06:00:09;;;;;;;9.20;2.30;;;;;;;3.92;100.00;98214.61;105703;1257;98985;-76
2023/11/24 06:02:58;;;;;;;9.50;2.10;;;;;;;3.91;100.00;98212.48;105808;1259;96807;-77
2023/11/24 06:05:43;;;;;;;5.20;1.50;;;;;;;3.90;99.97;98216.89;105782;1253;97542;-76
2023/11/24 06:08:29;;;;;;;14.30;2.30;;;;;;;3.88;100.00;98216.57;105951;1256;99960;-76
2023/11/24 06:11:17;;;;;;;10.00;2.20;;;;;;;3.86;99.90;98216.52;105875;1254;100633;-76
2023/11/24 06:14:03;;;;;;;8.30;2.00;;;;;;;3.83;99.95;98216.67;105772;1256;97736;-77
2023/11/24 06:16:48;;;;;;;8.00;2.20;;;;;;;3.83;100.00;98221.16;105879;1254;96607;-77
2023/11/24 06:19:34;;;;;;;10.50;2.30;;;;;;;3.84;100.00;98224.70;105691;1255;97700;-77
2023/11/24 06:22:19;;;;;;;10.30;2.60;;;;;;;3.86;100.00;98223.96;105727;1257;101319;-75
2023/11/24 06:25:05;;;;;;;11.10;2.60;;;;;;;3.88;100.00;98224.44;105624;1256;99064;-77
2023/11/24 06:27:51;;;;;;;10.90;2.00;;;;;;;3.88;100.00;98225.58;105873;1255;97830;-76
2023/11/24 06:30:38;;;;;;;11.00;2.40;;;;;;;3.89;100.00;98226.54;105830;1253;96610;-76
2023/11/24 06:33:24;;;;;;;17.10;3.60;;;;;;;3.87;100.00;98232.04;105824;1254;97201;-75
2023/11/24 06:36:11;;;;;;;15.50;3.00;;;;;;;3.86;100.00;98234.89;105941;1256;99976;-76
2023/11/24 06:38:56;;;;;;;13.60;2.40;;;;;;;3.85;100.00;98235.77;105857;1252;100363;-76
2023/11/24 06:41:42;;;;;;;13.10;2.80;;;;;;;3.84;100.00;98241.36;105843;1253;97811;-75
2023/11/24 06:44:27;;;;;;;11.60;2.90;;;;;;;3.84;100.00;98244.91;105905;1253;96603;-77
2023/11/24 06:47:13;;;;;;;11.00;2.60;;;;;;;3.85;100.00;98246.63;105909;1253;96477;-76
2023/11/24 06:49:59;;;;;;;12.50;3.10;;;;;;;3.86;100.00;98245.94;105832;1256;100919;-75
2023/11/24 06:52:44;;;;;;;9.40;2.90;;;;;;;3.87;100.00;98239.79;105805;1257;99351;-76
2023/11/24 06:55:30;;;;;;;12.70;2.90;;;;;;;3.90;99.89;98240.88;105857;1254;97788;-76
2023/11/24 06:58:15;;;;;;;12.70;3.00;;;;;;;3.91;99.65;98241.66;105996;1252;96606;-76
2023/11/24 07:01:01;;;;;;;8.90;3.00;;;;;;;3.92;99.31;98247.29;105813;1256;97110;-75
2023/11/24 07:03:47;;;;;;;10.20;2.50;;;;;;;3.93;98.94;98245.41;105803;1256;100897;-75
2023/11/24 07:06:34;;;;;;;13.00;3.10;;;;;;;3.95;98.89;98250.66;105900;1253;99105;-76
2023/11/24 07:09:19;;;;;;;15.70;2.90;;;;;;;3.96;98.73;98255.08;105914;1254;98398;-76
2023/11/24 07:12:05;;;;;;;13.20;3.40;;;;;;;3.97;98.49;98254.73;105737;1256;96520;-76
2023/11/24 07:14:51;;;;;;;18.10;4.80;;;;;;;3.97;98.36;98256.55;105914;1253;97250;-75
2023/11/24 07:17:37;;;;;;;16.70;6.10;;;;;;;3.96;97.95;98251.08;105843;1257;100107;-76
2023/11/24 07:20:22;;;;;;;15.60;6.50;;;;;;;3.91;97.51;98246.83;105637;1256;99068;-75
2023/11/24 07:23:07;;;;;;;17.40;4.40;;;;;;;3.88;97.51;98248.50;105600;1256;99010;-78
2023/11/24 07:25:53;;;;;;;11.40;3.00;;;;;;;3.87;97.48;98249.19;105692;1256;96453;-76
2023/11/24 07:28:39;;;;;;;14.40;4.80;;;;;;;3.87;97.49;98250.42;105737;1253;98294;-76
2023/11/24 07:31:25;;;;;;;11.00;4.70;;;;;;;3.88;97.39;98246.19;105763;1257;99996;-77
2023/11/24 07:34:10;;;;;;;13.10;4.40;;;;;;;3.91;97.20;98249.04;105718;1254;100431;-75
2023/11/24 07:36:56;;;;;;;13.10;2.70;;;;;;;3.94;97.39;98255.39;105892;1253;98964;-77
2023/11/24 07:39:41;;;;;;;10.80;2.60;;;;;;;3.96;97.23;98252.95;105835;1252;96820;-76
2023/11/24 07:42:27;;;;;;;7.40;2.50;;;;;;;3.99;97.19;98242.52;105838;1258;97017;-76
2023/11/24 07:45:15;;;;;;;11.00;3.50;;;;;;;4.01;97.17;98246.43;105745;1256;101247;-77
2023/11/24 07:48:00;;;;;;;13.80;2.60;;;;;;;4.03;97.08;98241.80;105766;1254;99148;-76
2023/11/24 07:50:46;;;;;;;13.90;2.90;;;;;;;4.04;96.97;98242.52;105688;1256;134124;-77
2023/11/24 07:53:32;;;;;;;13.50;3.40;;;;;;;4.07;97.18;98244.33;105819;1256;96629;-76
2023/11/24 07:56:18;;;;;;;11.60;2.40;;;;;;;4.08;96.97;98248.04;105652;1259;97109;-76
2023/11/24 07:59:04;;;;;;;18.70;4.20;;;;;;;4.09;96.72;98246.64;105603;1254;99981;-75
2023/11/24 08:01:49;;;;;;;8.70;2.20;;;;;;;4.10;96.57;98247.17;105522;1258;99145;-75
2023/11/24 08:04:35;;;;;;;18.30;2.80;;;;;;;4.12;96.53;98253.02;105614;1254;97772;-77
2023/11/24 08:07:21;;;;;;;23.10;11.20;;;;;;;4.13;96.47;98251.48;106156;1257;96614;-86
2023/11/24 08:10:08;;;;;;;16.40;3.30;;;;;;;4.14;96.36;98253.23;106486;1259;97112;-87
2023/11/24 08:12:54;;;;;;;11.50;3.30;;;;;;;4.16;96.23;98247.47;106258;1262;102222;-84
2023/11/24 08:15:39;;;;;;;14.10;2.80;;;;;;;4.20;96.24;98243.99;106260;1255;100592;-76
2023/11/24 08:18:25;;;;;;;14.30;3.60;;;;;;;4.22;96.10;98242.74;105569;1259;99106;-76
2023/11/24 08:21:10;;;;;;;11.90;3.10;;;;;;;4.24;96.03;98233.73;106100;1256;96546;-84
2023/11/24 08:23:56;;;;;;;10.70;3.10;;;;;;;4.25;95.91;98230.15;106450;1261;97305;-85
2023/11/24 08:26:42;;;;;;;10.30;3.30;;;;;;;4.27;95.69;98226.08;106876;1256;101248;-86
2023/11/24 08:29:28;;;;;;;15.00;3.00;;;;;;;4.29;95.64;98230.73;106458;1256;99208;-88
2023/11/24 08:32:14;;;;;;;11.90;2.90;;;;;;;4.31;95.53;98230.44;105786;1260;98998;-79
2023/11/24 08:35:00;;;;;;;12.40;3.50;;;;;;;4.32;95.29;98229.05;106282;1259;96530;-77
2023/11/24 08:37:45;;;;;;;10.20;3.50;;;;;;;4.33;95.14;98226.24;105796;1256;96524;-83
2023/11/24 08:40:31;;;;;;;12.30;3.90;;;;;;;4.33;94.94;98224.84;106146;1257;99987;-78
2023/11/24 08:43:18;;;;;;;16.90;3.20;;;;;;;4.33;94.69;98221.10;105632;1256;100360;-78
2023/11/24 08:46:03;;;;;;;10.60;2.70;;;;;;;4.35;94.89;98219.84;105621;1259;99478;-78
2023/11/24 08:48:48;;;;;;;13.10;3.10;;;;;;;4.36;94.74;98219.88;105705;1256;96623;-77
2023/11/24 08:51:35;;;;;;;12.40;3.00;;;;;;;4.38;94.43;98220.45;105641;1256;97377;-83
2023/11/24 08:54:22;;;;;;;29.90;11.20;;;;;;;4.44;94.36;98223.00;106265;1256;101386;-82
2023/11/24 08:57:08;;;;;;;12.80;4.10;;;;;;;4.49;94.21;98221.98;106459;1256;100461;-76
2023/11/24 08:59:54;;;;;;;9.50;4.30;;;;;;;4.52;93.90;98215.33;106642;1256;97806;-82
2023/11/24 09:02:43;;;;;;;9.00;2.60;;;;;;;4.57;93.76;98215.19;106850;1256;96649;-78
2023/11/24 09:05:31;;;;;;;11.10;3.00;;;;;;;4.62;93.35;98218.98;105954;1259;97157;-80
2023/11/24 09:08:17;;;;;;;8.40;2.40;;;;;;;4.66;93.31;98222.48;106744;1261;100110;-79
2023/11/24 09:11:04;;;;;;;6.70;2.80;;;;;;;4.71;93.37;98225.14;106049;1259;100470;-81
2023/11/24 09:13:51;;;;;;;9.20;2.30;;;;;;;4.76;93.12;98227.31;106449;1259;97763;-80
2023/11/24 09:16:37;;;;;;;11.30;2.90;;;;;;;4.79;92.87;98226.31;106598;1256;96597;-81
2023/11/24 09:19:23;;;;;;;8.90;2.50;;;;;;;4.80;92.77;98221.89;106356;1259;96974;-83
2023/11/24 09:22:10;;;;;;;11.50;2.90;;;;;;;4.78;92.19;98222.46;106194;1258;101829;-83
2023/11/24 09:24:56;;;;;;;7.70;2.20;;;;;;;4.74;91.82;98216.15;106385;1256;99079;-83
2023/11/24 09:27:42;;;;;;;6.70;1.80;;;;;;;4.69;91.55;98217.36;106396;1257;97800;-84
2023/11/24 09:30:28;;;;;;;7.80;2.00;;;;;;;4.67;91.33;98217.21;106194;1255;96527;-84
2023/11/24 09:33:16;;;;;;;8.40;2.30;;;;;;;4.65;91.35;98227.67;106397;1259;96815;-83
2023/11/24 09:36:03;;;;;;;9.00;2.20;;;;;;;4.65;91.51;98225.48;106351;1259;99974;-82
2023/11/24 09:38:51;;;;;;;6.90;2.80;;;;;;;4.65;91.60;98226.12;106439;1256;101470;-78
2023/11/24 09:41:39;;;;;;;5.30;2.30;;;;;;;4.66;91.27;98224.23;105819;1254;99116;-78
2023/11/24 09:44:26;;;;;;;8.60;2.40;;;;;;;4.66;91.43;98226.85;106229;1258;97888;-79
2023/11/24 09:47:13;;;;;;;5.30;1.60;;;;;;;4.64;91.09;98224.65;106011;1256;97377;-81
2023/11/24 09:50:01;;;;;;;4.10;1.90;;;;;;;4.62;91.12;98223.13;106783;1256;101317;-81
2023/11/24 09:52:49;;;;;;;7.80;2.30;;;;;;;4.61;90.76;98221.19;106586;1259;100099;-78
2023/11/24 09:55:35;;;;;;;10.70;2.20;;;;;;;4.60;90.93;98221.17;105482;1255;98250;-76
2023/11/24 09:58:23;;;;;;;3.50;1.60;;;;;;;4.61;91.16;98224.16;105268;1259;96682;-76
2023/11/24 10:01:27;;;;;;;6.90;2.60;;;;;;;4.61;90.86;98222.25;106098;1255;99443;-76
2023/11/24 10:04:12;;;;;;;7.10;2.20;;;;;;;4.62;91.10;98217.39;105301;1257;101001;-75
2023/11/24 10:06:58;;;;;;;11.50;2.90;;;;;;;4.65;91.22;98216.98;105566;1256;99299;-76
2023/11/24 10:09:48;;;;;;;8.70;2.10;;;;;;;4.68;91.11;98209.05;105225;1260;97718;-75
2023/11/24 10:12:36;;;;;;;5.10;1.90;;;;;;;4.70;90.64;98205.46;105184;1262;97879;-75
2023/11/24 10:15:22;;;;;;;7.00;2.90;;;;;;;4.74;91.43;98203.86;105240;1256;97036;-75
2023/11/24 10:18:08;;;;;;;12.00;2.10;;;;;;;4.83;91.53;98203.96;105302;1260;101383;-75
2023/11/24 10:20:55;;;;;;;4.70;1.60;;;;;;;4.87;91.17;98203.23;105136;1256;100348;-76
2023/11/24 10:23:40;;;;;;;10.10;2.40;;;;;;;4.89;90.60;98201.17;105333;1257;97737;-76
2023/11/24 10:26:26;;;;;;;7.40;2.10;;;;;;;4.88;89.98;98197.09;105305;1260;96614;-76
2023/11/24 10:29:13;;;;;;;6.90;2.00;;;;;;;4.87;89.68;98188.23;105248;1256;97007;-77
2023/11/24 10:32:01;;;;;;;7.10;2.30;;;;;;;4.86;89.73;98182.45;105219;1262;100073;-76
2023/11/24 10:34:47;;;;;;;7.60;3.50;;;;;;;4.88;89.93;98180.73;105209;1256;100468;-77
2023/11/24 10:37:33;;;;;;;7.50;2.60;;;;;;;4.91;89.84;98178.35;105180;1262;97692;-76
2023/11/24 10:40:20;;;;;;;5.80;2.10;;;;;;;4.94;89.61;98183.24;105172;1259;96677;-77
2023/11/24 10:43:07;;;;;;;8.70;2.20;;;;;;;4.98;89.62;98188.10;105275;1261;97115;-76
2023/11/24 10:45:56;;;;;;;8.10;4.20;;;;;;;5.03;89.59;98184.64;105246;1261;99978;-76
2023/11/24 10:48:48;;;;;;;6.10;2.30;;;;;;;5.09;88.99;98186.36;105321;1257;99044;-76
2023/11/24 10:51:52;;;;;;;8.30;2.80;;;;;;;5.10;88.84;98184.98;105176;1259;99351;-76
2023/11/24 10:54:45;;;;;;;7.00;2.10;;;;;;;5.11;88.52;98182.65;105234;1256;96643;-76
2023/11/24 10:57:43;;;;;;;10.60;3.50;;;;;;;5.11;87.46;98182.73;105898;1256;96530;-90
2023/11/24 11:00:30;;;;;;;9.80;2.70;;;;;;;5.07;87.39;98183.35;106624;1256;101268;-82
2023/11/24 11:03:16;;;;;;;8.00;2.60;;;;;;;5.10;87.49;98182.64;106317;1262;99100;-83
2023/11/24 11:06:16;;;;;;;9.40;1.80;;;;;;;5.13;87.07;98186.23;106128;1260;97445;-78
2023/11/24 11:09:51;;;;;;;6.20;2.50;;;;;;;5.14;86.50;98190.60;105716;1261;96605;-77
2023/11/24 11:12:32;;;;;;;8.50;2.30;;;;;;;5.16;86.99;98190.42;105601;1261;97983;-78
2023/11/24 11:15:28;;;;;;;7.60;2.10;;;;;;;5.24;87.61;98189.11;105652;1256;100103;-79
2023/11/24 11:18:14;;;;;;;6.10;2.10;;;;;;;5.31;86.93;98183.53;105707;1262;99222;-78
2023/11/24 11:21:29;;;;;;;8.20;3.20;;;;;;;5.32;86.66;98186.09;105474;1257;98988;-77
2023/11/24 11:24:24;;;;;;;6.90;2.30;;;;;;;5.30;86.47;98184.60;105472;1262;96575;-77
2023/11/24 11:27:24;;;;;;;11.30;2.90;;;;;;;5.27;86.51;98187.52;105402;1260;96626;-77
2023/11/24 11:30:21;;;;;;;10.40;2.40;;;;;;;5.27;86.31;98188.55;105633;1262;99993;-77
2023/11/24 11:33:10;;;;;;;6.50;2.50;;;;;;;5.26;86.27;98187.89;107391;1257;99135;-75
2023/11/24 11:36:09;;;;;;;6.60;2.20;;;;;;;5.24;86.05;98190.71;105561;1257;97805;-77
2023/11/24 11:38:56;;;;;;;6.90;2.50;;;;;;;5.20;85.29;98187.91;105571;1256;96630;-77
2023/11/24 11:41:44;;;;;;;4.60;1.80;;;;;;;5.17;85.09;98191.16;105524;1262;96676;-76
2023/11/24 11:47:51;;;;;;;6.40;2.40;;;;;;;5.12;84.14;98187.61;105470;1256;99111;-78
2023/11/24 11:51:05;;;;;;;9.50;2.00;;;;;;;5.07;83.29;98186.38;105491;1259;99575;-76
2023/11/24 11:53:51;;;;;;;6.70;1.30;;;;;;;5.02;83.15;98187.05;105667;1259;96622;-78
2023/11/24 11:56:36;;;;;;;9.50;1.80;;;;;;;5.02;83.65;98192.64;105553;1262;97075;-76
2023/11/24 11:59:22;;;;;;;6.70;1.90;;;;;;;5.01;83.38;98194.15;105574;1260;99974;-76
2023/11/24 12:02:08;;;;;;;7.00;2.30;;;;;;;4.99;83.54;98196.78;106124;1259;99324;-82
2023/11/24 12:04:55;;;;;;;12.10;3.30;;;;;;;4.95;84.23;98198.86;106347;1263;97788;-83
2023/11/24 12:07:44;;;;;;;8.40;2.50;;;;;;;4.87;85.14;98200.73;106667;1261;96582;-82
2023/11/24 12:10:31;;;;;;;5.90;2.10;;;;;;;4.82;85.53;98201.56;106469;1262;97130;-83
2023/11/24 12:13:17;;;;;;;5.60;2.60;;;;;;;4.79;85.63;98205.20;106542;1262;101782;-82
2023/11/24 12:16:05;;;;;;;9.70;2.30;;;;;;;4.77;86.01;98207.90;106808;1260;100282;-80
2023/11/24 12:18:51;;;;;;;10.10;2.50;;;;;;;4.76;86.56;98212.84;105919;1259;97774;-83
2023/11/24 12:21:42;;;;;;;13.20;5.60;;;;;;;4.75;87.07;98217.40;106126;1256;97062;-83
2023/11/24 12:24:29;;;;;;;8.20;3.00;;;;;;;4.70;87.25;98220.35;106146;1256;96659;-80
2023/11/24 12:27:14;;;;;;;8.70;3.20;;;;;;;4.62;87.42;98220.73;106330;1257;100025;-80
2023/11/24 12:30:04;;;;;;;12.40;5.20;;;;;;;4.54;87.78;98222.62;106378;1257;99164;-81
2023/11/24 12:32:52;;;;;;;8.70;4.80;;;;;;;4.50;88.00;98226.22;106484;1256;97747;-80
2023/11/24 12:35:47;;;;;;;10.00;3.80;;;;;;;4.48;88.33;98215.87;105615;1257;97078;-75
2023/11/24 12:38:34;;;;;;;7.30;3.10;;;;;;;4.47;88.44;98211.75;106516;1260;97186;-76
2023/11/24 12:41:20;;;;;;;19.60;7.40;;;;;;;4.49;88.76;98206.66;105521;1256;100202;-75
2023/11/24 12:44:07;;;;;;;14.80;7.50;;;;;;;4.51;88.92;98210.72;105539;1256;99949;-76
2023/11/24 12:47:14;;;;;;;19.50;7.70;;;;;;;4.53;89.33;98211.53;105711;1260;99051;-81
2023/11/24 12:50:11;;;;;;;19.40;6.60;;;;;;;4.54;89.49;98214.91;106469;1260;96503;-80
2023/11/24 12:52:59;;;;;;;19.30;7.70;;;;;;;4.55;89.58;98218.39;106596;1262;96602;-80
2023/11/24 12:55:45;;;;;;;8.60;3.50;;;;;;;4.55;89.81;98214.19;106337;1261;99974;-80
2023/11/24 12:58:30;;;;;;;11.50;4.80;;;;;;;4.55;89.52;98209.70;106443;1262;100331;-82